Time;durP1;ratioP1;P1;durP2;ratioP2;P2;SDS_P1;SDS_P2;PMS_P1;PMS_P2;Temp;Humidity;BMP_temperature;BMP_pressure;BME280_temperature;BME280_humidity;BME280_pressure;Samples;Min_cycle;Max_cycle;Signal;HPM_P1;HPM_P2
2024/03/18 00:01:59;;;;;;;3.47;3.03;;;12.30;99.90;;;;;;5013164;28;20605;-74
2024/03/18 00:04:26;;;;;;;5.17;3.97;;;12.40;99.90;;;;;;5014083;28;20464;-73
2024/03/18 00:06:55;;;;;;;5.20;3.90;;;12.40;99.90;;;;;;5016497;28;20458;-73
2024/03/18 00:09:22;;;;;;;5.63;3.80;;;12.40;99.90;;;;;;5009684;28;20519;-72
2024/03/18 00:11:48;;;;;;;5.23;3.30;;;12.40;99.90;;;;;;5011818;28;20470;-72
2024/03/18 00:14:15;;;;;;;4.50;3.33;;;12.20;99.90;;;;;;5034744;28;20455;-73
2024/03/18 00:16:46;;;;;;;5.90;4.43;;;12.10;99.90;;;;;;5020163;28;20451;-72
2024/03/18 00:19:13;;;;;;;7.40;3.60;;;12.10;99.90;;;;;;5014003;28;20781;-72
2024/03/18 00:21:40;;;;;;;5.17;3.53;;;12.10;99.90;;;;;;5016711;28;20482;-72
2024/03/18 00:24:06;;;;;;;3.57;2.80;;;12.10;99.90;;;;;;5008226;28;20468;-72
2024/03/18 00:26:33;;;;;;;5.07;3.33;;;12.10;99.90;;;;;;5015220;28;21295;-72
2024/03/18 00:29:00;;;;;;;4.50;3.33;;;12.10;99.90;;;;;;5010447;28;20565;-72
2024/03/18 00:31:27;;;;;;;5.63;3.43;;;12.10;99.90;;;;;;5013140;28;20458;-72
2024/03/18 00:33:56;;;;;;;4.33;3.60;;;12.10;99.90;;;;;;5014481;28;20463;-72
2024/03/18 00:36:23;;;;;;;6.30;3.37;;;12.20;99.90;;;;;;5024487;28;26604;-72
2024/03/18 00:38:49;;;;;;;5.90;3.80;;;12.20;99.90;;;;;;5021052;28;20430;-72
2024/03/18 00:44:01;;;;;;;4.43;3.63;;;12.20;99.90;;;;;;5014303;28;20501;-72
2024/03/18 00:46:27;;;;;;;6.70;3.80;;;12.20;99.90;;;;;;5019418;28;20455;-73
2024/03/18 00:48:56;;;;;;;7.63;4.37;;;12.20;99.90;;;;;;5029303;28;20494;-73
2024/03/18 00:51:21;;;;;;;6.30;3.80;;;12.20;99.90;;;;;;5028823;28;20431;-73
2024/03/18 00:53:48;;;;;;;5.40;4.00;;;12.20;99.90;;;;;;5027097;28;20451;-72
2024/03/18 00:56:15;;;;;;;6.57;5.87;;;12.10;99.90;;;;;;5037325;28;20205;-72
2024/03/18 00:58:42;;;;;;;6.47;4.33;;;12.10;99.90;;;;;;5036103;28;20451;-72
2024/03/18 01:01:09;;;;;;;5.50;5.00;;;12.10;99.90;;;;;;5032568;28;20727;-72
2024/03/18 01:03:35;;;;;;;5.70;3.33;;;12.10;99.90;;;;;;5025526;28;20466;-72
2024/03/18 01:06:04;;;;;;;4.03;3.10;;;12.00;99.90;;;;;;5033194;28;20456;-73
2024/03/18 01:08:34;;;;;;;6.33;4.17;;;11.90;99.90;;;;;;5029156;28;20429;-72
2024/03/18 01:11:02;;;;;;;8.13;5.40;;;12.00;99.90;;;;;;5029107;28;20480;-73
2024/03/18 01:13:33;;;;;;;5.70;3.90;;;12.00;99.90;;;;;;5020800;28;20457;-71
2024/03/18 01:16:00;;;;;;;8.37;5.07;;;12.00;99.90;;;;;;5016414;28;20483;-72
2024/03/18 01:18:28;;;;;;;7.47;4.00;;;12.10;99.90;;;;;;5019572;28;20467;-72
2024/03/18 01:20:55;;;;;;;9.20;4.63;;;12.00;99.90;;;;;;5007746;28;20534;-73
2024/03/18 01:23:26;;;;;;;9.83;4.80;;;12.00;99.90;;;;;;5010420;28;20479;-73
2024/03/18 01:25:54;;;;;;;6.50;4.37;;;12.00;99.90;;;;;;5015239;28;20490;-73
2024/03/18 01:28:21;;;;;;;8.67;5.87;;;12.00;99.90;;;;;;5015399;28;20464;-72
2024/03/18 01:30:49;;;;;;;7.60;5.10;;;12.00;99.90;;;;;;5011404;28;20486;-73
2024/03/18 01:33:16;;;;;;;7.17;4.70;;;12.00;99.90;;;;;;5007389;28;20539;-72
2024/03/18 01:35:43;;;;;;;6.40;4.37;;;12.00;99.90;;;;;;5024492;28;20577;-73
2024/03/18 01:38:10;;;;;;;6.90;4.30;;;12.10;99.90;;;;;;4999203;28;20468;-72
2024/03/18 01:40:37;;;;;;;7.40;4.10;;;11.80;99.90;;;;;;5017975;28;20500;-71
2024/03/18 01:43:04;;;;;;;6.87;4.00;;;11.70;99.90;;;;;;5014093;28;20852;-71
2024/03/18 01:45:31;;;;;;;6.00;4.70;;;11.60;99.90;;;;;;5011293;28;20963;-71
2024/03/18 01:47:58;;;;;;;6.60;4.43;;;11.50;99.90;;;;;;5011629;28;21134;-71
2024/03/18 01:50:25;;;;;;;9.80;5.30;;;11.40;99.90;;;;;;5006528;28;20478;-72
2024/03/18 01:52:52;;;;;;;16.60;4.70;;;11.30;99.90;;;;;;5011111;28;20439;-73
2024/03/18 01:55:21;;;;;;;9.57;4.97;;;11.20;99.90;;;;;;5006200;28;20463;-72
2024/03/18 01:57:49;;;;;;;8.97;5.07;;;11.40;99.90;;;;;;5009337;28;20463;-72
2024/03/18 02:00:31;;;;;;;8.13;5.87;;;11.40;99.90;;;;;;5018130;28;20499;-72
2024/03/18 02:02:58;;;;;;;6.90;4.83;;;11.20;99.90;;;;;;5005133;28;21028;-72
2024/03/18 02:05:25;;;;;;;12.27;6.70;;;11.20;99.90;;;;;;5005877;28;20455;-71
2024/03/18 02:07:51;;;;;;;9.97;4.93;;;11.20;99.90;;;;;;5005870;28;21174;-71
2024/03/18 02:10:19;;;;;;;9.87;6.30;;;11.30;99.90;;;;;;5016791;28;20487;-72
2024/03/18 02:12:45;;;;;;;10.53;6.17;;;11.30;99.90;;;;;;5014643;28;20434;-72
2024/03/18 02:15:17;;;;;;;8.57;6.03;;;11.40;99.90;;;;;;5009411;28;20516;-72
2024/03/18 02:17:44;;;;;;;12.20;6.77;;;11.30;99.90;;;;;;5012647;28;20621;-71
2024/03/18 02:20:12;;;;;;;12.73;6.30;;;11.40;99.90;;;;;;5016005;28;20509;-72
2024/03/18 02:22:40;;;;;;;9.27;4.87;;;11.40;99.90;;;;;;5013471;28;20479;-71
2024/03/18 02:25:08;;;;;;;11.00;4.93;;;11.40;99.90;;;;;;5015643;28;20464;-72
2024/03/18 02:27:35;;;;;;;8.93;5.87;;;11.50;99.90;;;;;;5015400;28;20455;-72
2024/03/18 02:30:02;;;;;;;8.30;4.50;;;11.60;99.90;;;;;;5014204;28;20490;-71
2024/03/18 02:32:30;;;;;;;12.50;7.00;;;11.50;99.90;;;;;;5011839;28;20433;-71
2024/03/18 02:34:57;;;;;;;9.80;4.50;;;11.40;99.90;;;;;;5028316;28;21046;-71
2024/03/18 02:37:24;;;;;;;10.33;4.93;;;11.50;99.90;;;;;;5010529;28;20956;-71
2024/03/18 02:39:53;;;;;;;8.83;5.40;;;11.50;99.90;;;;;;5019143;28;20475;-71
2024/03/18 02:42:20;;;;;;;10.80;6.37;;;11.50;99.90;;;;;;5014702;28;20487;-72
2024/03/18 02:44:54;;;;;;;5.93;3.70;;;11.60;99.90;;;;;;5019070;28;20470;-72
2024/03/18 02:47:21;;;;;;;9.53;5.33;;;11.50;99.90;;;;;;5017349;28;20486;-72
2024/03/18 02:49:48;;;;;;;16.07;6.87;;;11.30;99.90;;;;;;5038465;28;20501;-72
2024/03/18 02:52:15;;;;;;;7.50;5.20;;;11.40;99.90;;;;;;5030158;28;20538;-72
2024/03/18 02:54:41;;;;;;;6.00;4.40;;;11.40;99.90;;;;;;5037822;28;20907;-72
2024/03/18 02:57:10;;;;;;;10.67;7.07;;;11.30;99.90;;;;;;5033482;28;20467;-72
2024/03/18 02:59:37;;;;;;;10.17;4.70;;;11.40;99.90;;;;;;5035518;28;20995;-72
2024/03/18 03:02:04;;;;;;;10.30;5.80;;;11.50;99.90;;;;;;5030161;28;20489;-72
2024/03/18 03:04:31;;;;;;;8.97;4.53;;;11.50;99.90;;;;;;5035121;28;20486;-72
2024/03/18 03:06:58;;;;;;;8.43;6.43;;;11.50;99.90;;;;;;5028423;28;20462;-72
2024/03/18 03:09:24;;;;;;;5.93;4.20;;;11.40;99.90;;;;;;5033106;28;20482;-71
2024/03/18 03:11:51;;;;;;;9.53;6.20;;;11.40;99.90;;;;;;5033764;28;20434;-72
2024/03/18 03:14:19;;;;;;;6.13;4.53;;;11.50;99.90;;;;;;5024118;28;20453;-71
2024/03/18 03:16:51;;;;;;;7.20;4.87;;;11.60;99.90;;;;;;5012850;28;20463;-71
2024/03/18 03:19:18;;;;;;;9.93;5.33;;;11.60;99.90;;;;;;5011970;28;20459;-72
2024/03/18 03:21:47;;;;;;;7.70;4.80;;;11.70;99.90;;;;;;5019023;28;20467;-72
2024/03/18 03:24:13;;;;;;;10.03;5.07;;;11.60;99.90;;;;;;5012378;28;20494;-71
2024/03/18 03:26:40;;;;;;;7.47;5.40;;;11.60;99.90;;;;;;5015640;28;20519;-71
2024/03/18 03:29:07;;;;;;;9.90;6.13;;;11.60;99.90;;;;;;5010243;28;20442;-71
2024/03/18 03:31:37;;;;;;;7.67;4.27;;;11.60;99.90;;;;;;5014003;28;20572;-72
2024/03/18 03:34:04;;;;;;;5.37;3.90;;;11.60;99.90;;;;;;5019053;28;20467;-71
2024/03/18 03:36:33;;;;;;;5.17;3.67;;;11.50;99.90;;;;;;5014335;28;20447;-72
2024/03/18 03:39:00;;;;;;;12.90;6.10;;;11.40;99.90;;;;;;5008903;28;20434;-72
2024/03/18 03:41:27;;;;;;;6.47;4.20;;;11.40;99.90;;;;;;5016036;28;20845;-71
2024/03/18 03:43:53;;;;;;;6.13;3.50;;;11.40;99.90;;;;;;5007430;28;20554;-72
2024/03/18 03:46:20;;;;;;;7.80;4.37;;;11.50;99.90;;;;;;5010047;28;20457;-72
2024/03/18 03:48:51;;;;;;;6.47;5.87;;;11.50;99.90;;;;;;5016678;28;20437;-73
2024/03/18 03:51:17;;;;;;;8.33;4.90;;;11.50;99.90;;;;;;5003727;28;20438;-71
2024/03/18 03:53:46;;;;;;;6.23;4.00;;;11.60;99.90;;;;;;5015492;28;20457;-71
2024/03/18 03:56:13;;;;;;;7.00;4.40;;;11.60;99.90;;;;;;5015658;28;20449;-71
2024/03/18 03:58:46;;;;;;;7.17;5.00;;;11.60;99.90;;;;;;5012821;28;20442;-72
2024/03/18 04:01:13;;;;;;;6.73;4.70;;;11.60;99.90;;;;;;5012141;28;20473;-72
2024/03/18 04:03:39;;;;;;;10.60;5.30;;;11.70;99.90;;;;;;5011417;28;20469;-72
2024/03/18 04:06:08;;;;;;;15.00;5.70;;;11.70;99.90;;;;;;5022701;28;20732;-72
2024/03/18 04:08:34;;;;;;;8.97;5.17;;;11.60;99.90;;;;;;5029865;28;20570;-72
2024/03/18 04:11:01;;;;;;;9.50;3.90;;;11.80;99.90;;;;;;5030879;28;20488;-72
2024/03/18 04:13:28;;;;;;;7.13;4.47;;;11.70;99.90;;;;;;5030662;28;20435;-72
2024/03/18 04:15:55;;;;;;;9.87;4.97;;;11.70;99.90;;;;;;5030904;28;20838;-71
2024/03/18 04:18:22;;;;;;;6.37;3.90;;;11.70;99.90;;;;;;5041411;28;20483;-71
2024/03/18 04:20:49;;;;;;;6.37;3.90;;;11.70;99.90;;;;;;5026840;28;20462;-71
2024/03/18 04:23:16;;;;;;;9.30;6.00;;;11.70;99.90;;;;;;5025253;28;20443;-69
2024/03/18 04:25:43;;;;;;;9.37;5.13;;;11.70;99.90;;;;;;5032660;28;20803;-69
2024/03/18 04:28:10;;;;;;;9.60;4.67;;;11.70;99.90;;;;;;5029523;28;20494;-70
2024/03/18 04:30:37;;;;;;;8.17;4.23;;;11.50;99.90;;;;;;5038050;28;20476;-69
2024/03/18 04:33:07;;;;;;;8.60;4.30;;;11.40;99.90;;;;;;5027867;28;20443;-70
2024/03/18 04:35:35;;;;;;;9.00;5.80;;;11.50;99.90;;;;;;5017500;28;20464;-69
2024/03/18 04:38:02;;;;;;;9.53;5.63;;;11.60;99.90;;;;;;5024656;28;20470;-69
2024/03/18 04:40:30;;;;;;;4.07;3.17;;;11.60;99.90;;;;;;5022958;28;20479;-69
2024/03/18 04:42:57;;;;;;;6.43;4.40;;;11.60;99.90;;;;;;5024859;28;20525;-69
2024/03/18 04:45:27;;;;;;;5.70;4.20;;;11.60;99.90;;;;;;5016756;28;20463;-69
2024/03/18 04:47:54;;;;;;;9.00;5.07;;;11.60;99.90;;;;;;5024983;28;20456;-69
2024/03/18 04:50:23;;;;;;;6.70;4.10;;;11.60;99.90;;;;;;5028107;28;20476;-69
2024/03/18 04:52:51;;;;;;;4.83;4.27;;;11.60;99.90;;;;;;5036058;28;20494;-69
2024/03/18 04:55:19;;;;;;;7.50;4.10;;;11.60;99.90;;;;;;5027073;28;20557;-70
2024/03/18 04:57:50;;;;;;;4.73;4.33;;;11.70;99.90;;;;;;5038641;28;20476;-69
2024/03/18 05:00:17;;;;;;;5.40;3.90;;;11.60;99.90;;;;;;5028500;28;20506;-70
2024/03/18 05:02:45;;;;;;;9.33;4.73;;;11.70;99.90;;;;;;5028874;28;20497;-70
2024/03/18 05:05:13;;;;;;;7.30;4.77;;;11.60;99.90;;;;;;5029555;28;20474;-69
2024/03/18 05:07:40;;;;;;;8.77;5.00;;;11.50;99.90;;;;;;5035566;28;20456;-70
2024/03/18 05:10:08;;;;;;;6.37;5.00;;;11.50;99.90;;;;;;5024035;28;20490;-69
2024/03/18 05:12:35;;;;;;;7.23;4.17;;;11.60;99.90;;;;;;5033653;28;20471;-69
2024/03/18 05:15:04;;;;;;;9.37;5.80;;;11.50;99.90;;;;;;5035455;28;20822;-68
2024/03/18 05:17:31;;;;;;;6.27;4.50;;;11.50;99.90;;;;;;5024087;28;20952;-69
2024/03/18 05:19:58;;;;;;;5.30;3.50;;;11.50;99.90;;;;;;5027968;28;20491;-69
2024/03/18 05:22:26;;;;;;;7.50;4.10;;;11.50;99.90;;;;;;5016612;28;20467;-69
2024/03/18 05:24:53;;;;;;;8.33;4.80;;;11.60;99.90;;;;;;5026208;28;21124;-69
2024/03/18 05:27:20;;;;;;;6.90;5.50;;;11.60;99.90;;;;;;5015363;28;20448;-68
2024/03/18 05:29:47;;;;;;;6.67;4.10;;;11.60;99.90;;;;;;5020001;28;20475;-69
2024/03/18 05:32:19;;;;;;;7.07;4.63;;;11.60;99.90;;;;;;5022084;28;20467;-69
2024/03/18 05:34:49;;;;;;;9.97;5.33;;;11.70;99.90;;;;;;5020886;28;20819;-69
2024/03/18 05:37:17;;;;;;;7.83;4.40;;;11.70;99.90;;;;;;5027667;28;20472;-69
2024/03/18 05:39:43;;;;;;;9.73;4.67;;;11.70;99.90;;;;;;5024679;28;20514;-69
2024/03/18 05:42:10;;;;;;;7.43;4.10;;;11.60;99.90;;;;;;5022849;28;20878;-69
2024/03/18 05:44:37;;;;;;;5.87;4.67;;;11.60;99.90;;;;;;5027931;28;20471;-69
2024/03/18 05:47:04;;;;;;;4.47;4.07;;;11.60;99.90;;;;;;5021823;28;20456;-70
2024/03/18 05:49:34;;;;;;;10.70;5.50;;;11.60;99.90;;;;;;5016678;28;21426;-69
2024/03/18 05:52:01;;;;;;;12.97;6.40;;;11.60;99.90;;;;;;5013718;28;20448;-69
2024/03/18 05:54:28;;;;;;;18.13;6.70;;;11.60;99.90;;;;;;5031199;28;21399;-68
2024/03/18 05:56:55;;;;;;;9.73;5.37;;;11.60;99.90;;;;;;5030368;28;20935;-68
2024/03/18 05:59:21;;;;;;;11.23;7.27;;;11.60;99.90;;;;;;5024829;28;20462;-68
2024/03/18 06:01:48;;;;;;;8.20;5.00;;;11.80;99.90;;;;;;5027107;28;20471;-69
2024/03/18 06:04:17;;;;;;;18.70;10.07;;;11.80;99.90;;;;;;5020099;28;20483;-68
2024/03/18 06:06:45;;;;;;;11.70;5.80;;;11.80;99.90;;;;;;5028174;28;20467;-69
2024/03/18 06:09:12;;;;;;;7.50;5.00;;;11.80;99.90;;;;;;5039295;22;20463;-69
2024/03/18 06:11:40;;;;;;;10.80;6.23;;;11.80;99.90;;;;;;5026746;28;20709;-69
2024/03/18 06:14:08;;;;;;;9.63;5.83;;;11.80;99.90;;;;;;5027130;28;20467;-70
2024/03/18 06:16:36;;;;;;;10.77;6.30;;;11.90;99.90;;;;;;5027527;28;21102;-69
2024/03/18 06:19:04;;;;;;;8.37;5.90;;;11.80;99.90;;;;;;5022821;28;20465;-69
2024/03/18 06:21:39;;;;;;;14.40;6.67;;;11.90;99.90;;;;;;5023219;28;20932;-69
2024/03/18 06:24:17;;;;;;;8.57;5.27;;;11.90;99.90;;;;;;5024240;28;20993;-69
2024/03/18 06:26:43;;;;;;;8.37;4.83;;;11.90;99.90;;;;;;5027098;28;20460;-69
2024/03/18 06:29:10;;;;;;;12.33;7.03;;;11.90;99.90;;;;;;5025148;28;20478;-68
2024/03/18 06:31:36;;;;;;;13.10;8.63;;;11.90;99.90;;;;;;5025075;28;20510;-68
2024/03/18 06:34:07;;;;;;;9.90;5.70;;;12.00;99.90;;;;;;5026245;28;20446;-68
2024/03/18 06:36:34;;;;;;;11.93;7.23;;;12.00;99.90;;;;;;5028430;28;20591;-69
2024/03/18 06:39:02;;;;;;;13.23;6.67;;;12.00;99.90;;;;;;5027883;28;20503;-69
2024/03/18 06:41:30;;;;;;;10.73;6.87;;;12.00;99.90;;;;;;5022058;28;20523;-70
2024/03/18 06:43:57;;;;;;;10.80;6.80;;;12.10;99.90;;;;;;5027265;28;20498;-69
2024/03/18 06:46:24;;;;;;;12.90;7.53;;;12.10;99.90;;;;;;5028971;28;20468;-69
2024/03/18 06:48:51;;;;;;;12.63;8.57;;;12.10;99.90;;;;;;5035680;28;20455;-69
2024/03/18 06:51:18;;;;;;;12.07;8.10;;;12.10;99.90;;;;;;5033514;28;20467;-70
2024/03/18 06:53:44;;;;;;;11.50;7.07;;;12.20;99.90;;;;;;5034455;28;20459;-71
2024/03/18 06:56:11;;;;;;;19.33;6.93;;;12.30;99.90;;;;;;5042681;28;20959;-70
2024/03/18 06:58:39;;;;;;;16.60;7.97;;;12.30;99.90;;;;;;5039371;28;20461;-70
2024/03/18 07:01:08;;;;;;;11.47;8.57;;;12.30;99.90;;;;;;5030434;28;20486;-68
2024/03/18 07:03:37;;;;;;;7.40;5.30;;;12.40;99.90;;;;;;5008792;22;1106217;-68
2024/03/18 07:06:05;;;;;;;12.93;5.70;;;12.30;99.90;;;;;;5011481;28;20212;-68
2024/03/18 07:08:31;;;;;;;7.57;5.57;;;12.40;99.90;;;;;;5011901;28;20937;-68
2024/03/18 07:10:58;;;;;;;12.60;6.90;;;12.50;99.90;;;;;;5014033;28;20555;-68
2024/03/18 07:13:26;;;;;;;5.77;4.90;;;12.50;99.90;;;;;;5014689;28;20460;-68
2024/03/18 07:15:55;;;;;;;9.67;5.80;;;12.40;99.90;;;;;;5009074;28;21527;-68
2024/03/18 07:18:23;;;;;;;8.10;5.00;;;12.50;99.90;;;;;;5009070;28;20463;-69
2024/03/18 07:20:50;;;;;;;8.83;6.50;;;12.40;99.90;;;;;;5004956;28;20567;-68
2024/03/18 07:23:17;;;;;;;7.70;5.00;;;12.50;99.90;;;;;;5006029;28;20468;-68
2024/03/18 07:25:46;;;;;;;7.23;4.50;;;12.40;99.90;;;;;;5006374;28;20464;-70
2024/03/18 07:28:13;;;;;;;9.80;5.70;;;12.40;99.90;;;;;;5006880;28;20461;-70
2024/03/18 07:30:40;;;;;;;6.20;4.60;;;12.40;99.90;;;;;;5000290;28;20488;-68
2024/03/18 07:33:08;;;;;;;7.90;5.37;;;12.60;99.90;;;;;;5009162;28;21039;-68
2024/03/18 07:35:35;;;;;;;7.27;4.53;;;12.60;99.90;;;;;;5004486;28;20813;-69
2024/03/18 07:38:02;;;;;;;13.63;7.00;;;12.70;99.90;;;;;;5007422;28;20469;-68
2024/03/18 07:40:29;;;;;;;8.93;5.33;;;12.90;99.90;;;;;;5007697;28;20566;-68
2024/03/18 07:42:56;;;;;;;8.90;5.93;;;13.10;99.90;;;;;;4998307;28;20435;-69
2024/03/18 07:45:23;;;;;;;10.47;7.30;;;13.10;99.90;;;;;;5004941;28;20863;-68
2024/03/18 07:47:50;;;;;;;11.10;6.57;;;13.20;99.90;;;;;;5005319;28;20460;-68
2024/03/18 07:50:18;;;;;;;12.00;6.37;;;13.10;99.90;;;;;;4999426;28;26755;-69
2024/03/18 07:52:45;;;;;;;6.30;4.90;;;13.20;99.90;;;;;;4998733;28;20991;-68
2024/03/18 07:55:12;;;;;;;10.10;5.60;;;13.40;99.90;;;;;;5002606;28;20565;-68
2024/03/18 07:57:39;;;;;;;7.17;4.33;;;13.40;99.90;;;;;;5007043;28;20467;-69
2024/03/18 08:00:08;;;;;;;12.10;5.47;;;13.40;99.90;;;;;;5003069;28;21472;-69
2024/03/18 08:02:35;;;;;;;12.40;5.23;;;13.40;99.90;;;;;;5001411;28;20991;-69
2024/03/18 08:05:02;;;;;;;11.60;5.93;;;13.60;99.90;;;;;;5011998;28;20601;-69
2024/03/18 08:07:30;;;;;;;7.97;5.47;;;13.50;99.90;;;;;;5003770;28;22188;-69
2024/03/18 08:09:57;;;;;;;9.47;5.77;;;13.60;99.90;;;;;;4999168;28;20481;-69
2024/03/18 08:12:24;;;;;;;8.07;5.93;;;13.90;99.90;;;;;;4999321;28;20666;-69
2024/03/18 08:14:51;;;;;;;7.00;4.63;;;14.10;99.90;;;;;;4998336;28;20456;-69
2024/03/18 08:17:20;;;;;;;9.00;5.30;;;14.40;99.90;;;;;;5005436;28;20539;-69
2024/03/18 08:19:47;;;;;;;9.67;4.90;;;14.60;99.90;;;;;;5004858;28;20482;-69
2024/03/18 08:22:16;;;;;;;8.27;6.10;;;14.90;99.90;;;;;;5004796;28;20536;-69
2024/03/18 08:24:46;;;;;;;10.90;6.60;;;15.00;99.90;;;;;;5004348;28;20485;-69
2024/03/18 08:27:13;;;;;;;11.63;5.47;;;15.00;99.90;;;;;;5009415;28;20527;-69
2024/03/18 08:29:40;;;;;;;7.27;4.70;;;15.00;99.90;;;;;;5001234;28;20563;-69
2024/03/18 08:32:06;;;;;;;10.53;6.00;;;14.90;99.90;;;;;;5004706;28;20460;-70
2024/03/18 08:34:33;;;;;;;11.93;6.80;;;14.80;99.90;;;;;;5003966;28;20506;-69
2024/03/18 08:37:01;;;;;;;7.60;5.03;;;14.70;99.90;;;;;;5002567;28;20468;-69
2024/03/18 08:39:28;;;;;;;10.07;5.80;;;14.70;99.90;;;;;;4997941;28;20484;-69
2024/03/18 08:41:57;;;;;;;8.70;5.17;;;14.70;99.90;;;;;;5008203;28;20463;-69
2024/03/18 08:44:24;;;;;;;10.83;6.47;;;14.60;99.90;;;;;;4997297;28;20480;-69
2024/03/18 08:46:51;;;;;;;8.87;5.43;;;14.60;99.90;;;;;;5007603;28;20479;-69
2024/03/18 08:49:19;;;;;;;9.30;5.10;;;14.70;99.90;;;;;;5010612;28;20542;-69
2024/03/18 08:51:46;;;;;;;10.97;6.00;;;15.00;99.90;;;;;;5013472;28;20635;-68
2024/03/18 08:54:14;;;;;;;10.03;5.63;;;15.10;99.90;;;;;;5019909;28;20456;-68
2024/03/18 08:56:41;;;;;;;14.57;6.13;;;15.60;99.90;;;;;;5011852;28;21023;-69
2024/03/18 08:59:10;;;;;;;10.83;5.00;;;15.90;99.90;;;;;;5019384;28;20558;-69
2024/03/18 09:01:37;;;;;;;8.47;5.60;;;16.20;99.90;;;;;;5017044;28;20968;-69
2024/03/18 09:04:05;;;;;;;11.20;5.23;;;16.40;99.90;;;;;;5015933;28;20515;-69
2024/03/18 09:06:32;;;;;;;7.73;5.30;;;16.40;99.90;;;;;;5018702;28;20460;-69
2024/03/18 09:08:59;;;;;;;8.20;5.43;;;16.60;99.90;;;;;;5019385;28;20924;-69
2024/03/18 09:11:26;;;;;;;10.20;5.93;;;16.70;99.90;;;;;;5016004;28;20969;-69
2024/03/18 09:13:53;;;;;;;9.63;4.93;;;17.00;99.90;;;;;;5011088;28;20553;-69
2024/03/18 09:16:21;;;;;;;10.97;6.47;;;17.10;99.90;;;;;;5009055;28;20515;-69
2024/03/18 09:18:48;;;;;;;7.77;5.40;;;17.00;99.90;;;;;;5001190;28;21036;-68
2024/03/18 09:21:16;;;;;;;10.73;6.30;;;16.60;99.90;;;;;;4992599;28;20475;-68
2024/03/18 09:23:43;;;;;;;11.00;6.17;;;16.30;99.90;;;;;;4995361;28;20554;-68
2024/03/18 09:26:10;;;;;;;10.13;6.47;;;16.10;99.90;;;;;;4995313;28;20852;-68
2024/03/18 09:28:37;;;;;;;8.20;5.40;;;15.80;99.90;;;;;;4999044;28;20467;-68
2024/03/18 09:31:04;;;;;;;13.07;7.93;;;15.40;99.90;;;;;;4997501;28;20480;-68
2024/03/18 09:33:33;;;;;;;12.73;5.70;;;15.10;99.90;;;;;;4996609;28;20475;-69
2024/03/18 09:36:00;;;;;;;9.73;6.73;;;15.00;99.90;;;;;;5005984;28;20461;-69
2024/03/18 09:38:27;;;;;;;13.43;7.23;;;14.90;99.90;;;;;;5003943;28;20461;-68
2024/03/18 09:41:02;;;;;;;11.27;6.60;;;14.70;99.90;;;;;;4996491;28;20629;-69
2024/03/18 09:43:29;;;;;;;10.07;6.53;;;14.60;99.90;;;;;;5000472;28;20470;-69
2024/03/18 09:45:57;;;;;;;10.87;6.83;;;14.70;99.90;;;;;;4987786;28;20494;-68
2024/03/18 09:48:26;;;;;;;16.83;9.23;;;14.70;99.90;;;;;;4997494;28;20543;-68
2024/03/18 09:50:56;;;;;;;8.07;5.37;;;14.80;99.90;;;;;;4996592;28;20990;-69
2024/03/18 09:53:23;;;;;;;9.70;7.10;;;14.90;99.90;;;;;;4997799;28;20877;-68
2024/03/18 09:55:50;;;;;;;18.40;9.10;;;14.90;99.90;;;;;;4997098;28;20456;-68
2024/03/18 09:58:17;;;;;;;39.13;6.53;;;14.90;99.90;;;;;;4993468;28;20442;-68
2024/03/18 10:00:45;;;;;;;15.40;8.40;;;14.90;99.90;;;;;;4985099;28;20583;-68
2024/03/18 10:03:17;;;;;;;19.30;7.47;;;15.00;99.90;;;;;;4995621;28;20566;-69
2024/03/18 10:05:46;;;;;;;12.53;7.80;;;15.10;99.90;;;;;;4990590;28;20484;-69
2024/03/18 10:08:16;;;;;;;12.57;8.63;;;15.20;99.90;;;;;;4999928;28;20499;-68
2024/03/18 10:10:45;;;;;;;17.67;8.40;;;15.10;99.90;;;;;;5001854;28;20481;-67
2024/03/18 10:13:12;;;;;;;14.20;8.87;;;15.20;99.90;;;;;;4994640;28;20464;-69
2024/03/18 10:15:39;;;;;;;14.53;6.73;;;15.00;99.90;;;;;;4989545;28;21255;-69
2024/03/18 10:18:12;;;;;;;13.43;7.60;;;15.20;99.90;;;;;;4996406;28;20467;-69
2024/03/18 10:20:39;;;;;;;13.73;8.40;;;15.30;99.90;;;;;;4991930;28;20481;-68
2024/03/18 10:23:09;;;;;;;14.80;7.80;;;15.80;99.90;;;;;;4997594;28;20466;-69
2024/03/18 10:25:38;;;;;;;15.57;8.87;;;16.00;99.90;;;;;;4994241;28;20476;-69
2024/03/18 10:28:06;;;;;;;14.20;7.70;;;15.90;99.90;;;;;;4999055;28;20463;-70
2024/03/18 10:30:33;;;;;;;11.97;6.37;;;15.90;99.90;;;;;;4993370;28;20483;-69
2024/03/18 10:33:04;;;;;;;10.93;6.90;;;15.50;99.90;;;;;;4999077;28;20464;-68
2024/03/18 10:35:34;;;;;;;14.17;8.60;;;15.10;99.90;;;;;;5000275;28;20435;-68
2024/03/18 10:38:02;;;;;;;10.60;7.00;;;15.20;99.90;;;;;;5000473;28;21451;-68
2024/03/18 10:40:34;;;;;;;21.20;8.23;;;15.10;99.90;;;;;;5004058;28;20503;-69
2024/03/18 10:43:04;;;;;;;13.33;6.73;;;15.10;99.90;;;;;;5001354;28;20471;-69
2024/03/18 10:45:32;;;;;;;16.73;9.40;;;15.30;99.90;;;;;;5001058;28;20526;-69
2024/03/18 10:48:03;;;;;;;12.27;7.53;;;15.10;99.90;;;;;;5015424;28;20471;-68
2024/03/18 10:50:30;;;;;;;16.27;7.10;;;15.20;99.90;;;;;;5019231;28;20483;-69
2024/03/18 10:52:58;;;;;;;9.17;6.27;;;15.40;99.90;;;;;;5011782;28;20794;-68
2024/03/18 10:55:26;;;;;;;13.30;7.67;;;15.40;99.90;;;;;;5021960;28;20492;-69
2024/03/18 10:57:54;;;;;;;18.47;8.40;;;15.30;99.90;;;;;;5025550;28;20473;-69
2024/03/18 11:00:23;;;;;;;12.73;7.13;;;15.30;99.90;;;;;;5017541;28;20483;-68
2024/03/18 11:02:56;;;;;;;15.40;9.63;;;15.30;99.90;;;;;;5013086;28;20568;-68
2024/03/18 11:05:24;;;;;;;10.13;7.07;;;15.60;99.90;;;;;;5016230;28;20484;-68
2024/03/18 11:07:53;;;;;;;15.93;7.97;;;15.90;99.90;;;;;;5019541;28;20471;-68
2024/03/18 11:10:22;;;;;;;17.03;7.10;;;16.00;99.90;;;;;;5022042;28;20487;-68
2024/03/18 11:12:49;;;;;;;16.20;8.37;;;15.90;99.90;;;;;;5011209;28;20894;-68
2024/03/18 11:15:17;;;;;;;12.23;6.90;;;15.90;99.90;;;;;;4994894;28;20463;-69
2024/03/18 11:17:47;;;;;;;10.40;5.70;;;15.80;99.90;;;;;;5001584;28;20456;-69
2024/03/18 11:20:15;;;;;;;21.03;6.73;;;15.70;99.90;;;;;;4992959;28;20484;-69
2024/03/18 11:22:57;;;;;;;11.73;6.70;;;15.50;99.90;;;;;;4991181;28;20463;-69
2024/03/18 11:25:26;;;;;;;8.90;6.10;;;15.20;99.90;;;;;;5006269;28;21617;-68
2024/03/18 11:27:55;;;;;;;10.00;6.50;;;15.20;99.90;;;;;;4991827;28;20472;-69
2024/03/18 11:30:28;;;;;;;13.00;6.43;;;14.90;99.90;;;;;;4989964;28;20617;-69
2024/03/18 11:33:00;;;;;;;10.40;6.27;;;14.90;99.90;;;;;;4996241;28;20492;-69
2024/03/18 11:35:34;;;;;;;12.50;6.03;;;14.90;99.90;;;;;;5013199;28;21030;-67
2024/03/18 11:38:01;;;;;;;9.50;5.27;;;14.90;99.90;;;;;;4999735;28;20485;-69
2024/03/18 11:40:29;;;;;;;8.53;5.10;;;15.00;99.90;;;;;;5003346;28;21010;-68
2024/03/18 11:43:02;;;;;;;16.93;7.60;;;15.00;99.90;;;;;;4998179;28;20569;-68
2024/03/18 11:45:29;;;;;;;11.50;5.70;;;15.00;99.90;;;;;;4996011;28;20485;-68
2024/03/18 11:48:04;;;;;;;8.03;5.83;;;15.10;99.90;;;;;;4988404;28;21200;-68
2024/03/18 11:50:32;;;;;;;9.73;6.07;;;15.30;99.90;;;;;;4992168;28;20480;-69
2024/03/18 11:52:59;;;;;;;15.20;5.53;;;15.30;99.90;;;;;;4995123;28;20465;-69
2024/03/18 11:55:26;;;;;;;7.00;4.50;;;15.80;99.90;;;;;;4996408;28;20551;-69
2024/03/18 11:57:57;;;;;;;11.27;4.73;;;16.40;99.90;;;;;;4993786;28;22695;-69
2024/03/18 12:00:24;;;;;;;6.30;4.50;;;17.00;99.90;;;;;;4998339;28;21007;-69
2024/03/18 12:02:51;;;;;;;6.07;4.63;;;17.30;99.90;;;;;;4991002;28;20484;-69
2024/03/18 12:05:19;;;;;;;5.80;4.23;;;17.30;99.90;;;;;;4994706;28;20488;-69
2024/03/18 12:07:46;;;;;;;6.17;3.27;;;17.40;99.90;;;;;;4993643;28;20586;-69
2024/03/18 12:10:19;;;;;;;5.27;3.47;;;17.30;99.90;;;;;;5010313;28;20690;-69
2024/03/18 12:12:46;;;;;;;7.17;3.90;;;17.40;99.90;;;;;;5011637;28;20462;-69
2024/03/18 12:15:13;;;;;;;6.20;4.77;;;17.40;99.90;;;;;;4997270;28;20464;-69
2024/03/18 12:17:42;;;;;;;4.50;3.27;;;18.30;99.90;;;;;;4995358;28;20475;-69
2024/03/18 12:20:23;;;;;;;5.97;3.73;;;20.00;99.90;;;;;;5001079;28;21025;-69
2024/03/18 12:22:59;;;;;;;5.73;3.20;;;20.90;99.90;;;;;;4996112;28;20706;-68
2024/03/18 12:28:35;;;;;;;9.93;5.33;;;19.10;99.90;;;;;;4995986;28;20501;-69
2024/03/18 12:31:05;;;;;;;3.90;3.40;;;18.70;99.90;;;;;;4995409;28;20524;-69
2024/03/18 12:33:32;;;;;;;4.10;3.10;;;18.60;99.90;;;;;;4987787;28;20557;-70
2024/03/18 12:36:03;;;;;;;3.57;3.27;;;18.80;99.90;;;;;;5007752;28;20482;-69
2024/03/18 12:38:36;;;;;;;3.87;3.37;;;18.90;99.90;;;;;;4997204;28;20460;-69
2024/03/18 12:41:03;;;;;;;4.10;3.20;;;18.60;99.90;;;;;;4999009;28;20515;-69
2024/03/18 12:43:31;;;;;;;3.33;3.03;;;18.30;99.90;;;;;;5003600;28;20456;-69
2024/03/18 12:45:58;;;;;;;4.03;3.17;;;17.80;99.90;;;;;;4999505;28;20506;-69
2024/03/18 12:48:25;;;;;;;4.00;3.40;;;17.50;99.90;;;;;;5011253;28;20459;-69
2024/03/18 12:50:52;;;;;;;4.43;3.27;;;17.70;99.90;;;;;;5009209;28;20519;-69
2024/03/18 12:53:20;;;;;;;7.43;4.13;;;17.50;99.90;;;;;;5017010;28;20457;-69